sensor_id;sensor_type;location;lat;lon;timestamp;P1;durP1;ratioP1;P2;durP2;ratioP2
64959;SDS011;51487;52.266;10.542;2024-01-15T00:01:28;11.98;;;9.07;;
64959;SDS011;51487;52.266;10.542;2024-01-15T00:03:54;13.13;;;10.07;;
64959;SDS011;51487;52.266;10.542;2024-01-15T00:06:20;13.85;;;9.13;;
64959;SDS011;51487;52.266;10.542;2024-01-15T00:08:45;15.15;;;9.40;;
64959;SDS011;51487;52.266;10.542;2024-01-15T00:11:11;12.40;;;9.13;;
64959;SDS011;51487;52.266;10.542;2024-01-15T00:13:36;12.98;;;8.85;;
64959;SDS011;51487;52.266;10.542;2024-01-15T00:16:02;12.40;;;8.73;;
64959;SDS011;51487;52.266;10.542;2024-01-15T00:18:27;13.65;;;8.02;;
64959;SDS011;51487;52.266;10.542;2024-01-15T00:20:53;11.90;;;8.60;;
64959;SDS011;51487;52.266;10.542;2024-01-15T00:23:18;12.73;;;9.18;;
64959;SDS011;51487;52.266;10.542;2024-01-15T00:25:43;11.45;;;8.50;;
64959;SDS011;51487;52.266;10.542;2024-01-15T00:28:09;12.50;;;8.85;;
64959;SDS011;51487;52.266;10.542;2024-01-15T00:30:34;13.05;;;9.15;;
64959;SDS011;51487;52.266;10.542;2024-01-15T00:33:00;13.05;;;9.77;;
64959;SDS011;51487;52.266;10.542;2024-01-15T00:35:25;12.00;;;8.52;;
64959;SDS011;51487;52.266;10.542;2024-01-15T00:37:51;11.40;;;9.43;;
64959;SDS011;51487;52.266;10.542;2024-01-15T00:40:16;11.32;;;8.40;;
64959;SDS011;51487;52.266;10.542;2024-01-15T00:42:42;13.07;;;9.68;;
64959;SDS011;51487;52.266;10.542;2024-01-15T00:45:08;12.77;;;8.75;;
64959;SDS011;51487;52.266;10.542;2024-01-15T00:47:34;10.95;;;8.80;;
64959;SDS011;51487;52.266;10.542;2024-01-15T00:50:00;11.38;;;8.65;;
64959;SDS011;51487;52.266;10.542;2024-01-15T00:52:25;10.32;;;8.27;;
64959;SDS011;51487;52.266;10.542;2024-01-15T00:54:51;13.05;;;9.02;;
64959;SDS011;51487;52.266;10.542;2024-01-15T00:57:16;11.23;;;8.32;;
64959;SDS011;51487;52.266;10.542;2024-01-15T00:59:44;11.30;;;8.13;;
64959;SDS011;51487;52.266;10.542;2024-01-15T01:02:10;11.07;;;8.88;;
64959;SDS011;51487;52.266;10.542;2024-01-15T01:04:35;9.75;;;6.82;;
64959;SDS011;51487;52.266;10.542;2024-01-15T01:07:01;10.75;;;7.80;;
64959;SDS011;51487;52.266;10.542;2024-01-15T01:09:26;11.40;;;8.35;;
64959;SDS011;51487;52.266;10.542;2024-01-15T01:11:55;9.95;;;7.53;;
64959;SDS011;51487;52.266;10.542;2024-01-15T01:14:21;10.45;;;8.00;;
64959;SDS011;51487;52.266;10.542;2024-01-15T01:16:47;8.52;;;6.68;;
64959;SDS011;51487;52.266;10.542;2024-01-15T01:19:12;9.40;;;7.40;;
64959;SDS011;51487;52.266;10.542;2024-01-15T01:21:38;8.75;;;6.22;;
64959;SDS011;51487;52.266;10.542;2024-01-15T01:24:03;8.93;;;6.47;;
64959;SDS011;51487;52.266;10.542;2024-01-15T01:26:30;8.68;;;6.80;;
64959;SDS011;51487;52.266;10.542;2024-01-15T01:28:56;7.35;;;5.60;;
64959;SDS011;51487;52.266;10.542;2024-01-15T01:31:22;7.40;;;6.47;;
64959;SDS011;51487;52.266;10.542;2024-01-15T01:33:51;7.28;;;5.90;;
64959;SDS011;51487;52.266;10.542;2024-01-15T01:36:16;9.38;;;5.90;;
64959;SDS011;51487;52.266;10.542;2024-01-15T01:38:41;8.63;;;6.35;;
64959;SDS011;51487;52.266;10.542;2024-01-15T01:41:07;8.10;;;5.72;;
64959;SDS011;51487;52.266;10.542;2024-01-15T01:43:32;7.85;;;5.72;;
64959;SDS011;51487;52.266;10.542;2024-01-15T01:45:59;7.93;;;6.28;;
64959;SDS011;51487;52.266;10.542;2024-01-15T01:48:26;7.30;;;5.90;;
64959;SDS011;51487;52.266;10.542;2024-01-15T01:50:56;9.07;;;5.80;;
64959;SDS011;51487;52.266;10.542;2024-01-15T01:53:25;7.05;;;5.57;;
64959;SDS011;51487;52.266;10.542;2024-01-15T01:55:53;7.57;;;5.72;;
64959;SDS011;51487;52.266;10.542;2024-01-15T01:58:19;8.00;;;5.70;;
64959;SDS011;51487;52.266;10.542;2024-01-15T02:00:46;7.00;;;5.82;;
64959;SDS011;51487;52.266;10.542;2024-01-15T02:03:12;8.57;;;5.88;;
64959;SDS011;51487;52.266;10.542;2024-01-15T02:05:38;7.45;;;5.55;;
64959;SDS011;51487;52.266;10.542;2024-01-15T02:08:05;8.77;;;5.75;;
64959;SDS011;51487;52.266;10.542;2024-01-15T02:10:31;7.20;;;5.38;;
64959;SDS011;51487;52.266;10.542;2024-01-15T02:12:57;9.52;;;5.60;;
64959;SDS011;51487;52.266;10.542;2024-01-15T02:15:23;7.47;;;5.05;;
64959;SDS011;51487;52.266;10.542;2024-01-15T02:17:58;8.88;;;5.45;;
64959;SDS011;51487;52.266;10.542;2024-01-15T02:20:26;8.07;;;4.88;;
64959;SDS011;51487;52.266;10.542;2024-01-15T02:22:51;7.85;;;5.50;;
64959;SDS011;51487;52.266;10.542;2024-01-15T02:25:17;7.20;;;4.90;;
64959;SDS011;51487;52.266;10.542;2024-01-15T02:27:44;6.53;;;4.50;;
64959;SDS011;51487;52.266;10.542;2024-01-15T02:30:11;7.10;;;3.92;;
64959;SDS011;51487;52.266;10.542;2024-01-15T02:32:38;12.75;;;4.00;;
64959;SDS011;51487;52.266;10.542;2024-01-15T02:35:04;8.10;;;3.80;;
64959;SDS011;51487;52.266;10.542;2024-01-15T02:37:29;7.18;;;3.50;;
64959;SDS011;51487;52.266;10.542;2024-01-15T02:39:55;10.48;;;3.67;;
64959;SDS011;51487;52.266;10.542;2024-01-15T02:42:20;10.38;;;3.90;;
64959;SDS011;51487;52.266;10.542;2024-01-15T02:44:46;8.88;;;3.70;;
64959;SDS011;51487;52.266;10.542;2024-01-15T02:47:13;10.30;;;3.50;;
64959;SDS011;51487;52.266;10.542;2024-01-15T02:49:39;7.97;;;3.25;;
64959;SDS011;51487;52.266;10.542;2024-01-15T02:52:04;5.43;;;3.45;;
64959;SDS011;51487;52.266;10.542;2024-01-15T02:54:30;10.85;;;3.97;;
64959;SDS011;51487;52.266;10.542;2024-01-15T02:56:56;7.47;;;3.95;;
64959;SDS011;51487;52.266;10.542;2024-01-15T02:59:21;12.13;;;4.80;;
64959;SDS011;51487;52.266;10.542;2024-01-15T03:01:47;5.43;;;3.28;;
64959;SDS011;51487;52.266;10.542;2024-01-15T03:04:12;8.75;;;3.28;;
64959;SDS011;51487;52.266;10.542;2024-01-15T03:06:38;7.43;;;3.38;;
64959;SDS011;51487;52.266;10.542;2024-01-15T03:09:03;7.88;;;3.17;;
64959;SDS011;51487;52.266;10.542;2024-01-15T03:11:29;5.47;;;3.13;;
64959;SDS011;51487;52.266;10.542;2024-01-15T03:13:54;8.63;;;3.60;;
64959;SDS011;51487;52.266;10.542;2024-01-15T03:16:20;6.05;;;3.15;;
64959;SDS011;51487;52.266;10.542;2024-01-15T03:18:45;7.95;;;2.90;;
64959;SDS011;51487;52.266;10.542;2024-01-15T03:21:11;7.50;;;3.08;;
64959;SDS011;51487;52.266;10.542;2024-01-15T03:23:36;7.57;;;3.03;;
64959;SDS011;51487;52.266;10.542;2024-01-15T03:26:02;4.30;;;2.58;;
64959;SDS011;51487;52.266;10.542;2024-01-15T03:28:27;8.45;;;3.00;;
64959;SDS011;51487;52.266;10.542;2024-01-15T03:30:55;6.03;;;3.28;;
64959;SDS011;51487;52.266;10.542;2024-01-15T03:33:21;4.53;;;2.60;;
64959;SDS011;51487;52.266;10.542;2024-01-15T03:35:47;5.93;;;3.28;;
64959;SDS011;51487;52.266;10.542;2024-01-15T03:38:13;9.57;;;3.33;;
64959;SDS011;51487;52.266;10.542;2024-01-15T03:40:38;11.43;;;3.20;;
64959;SDS011;51487;52.266;10.542;2024-01-15T03:43:04;7.85;;;3.20;;
64959;SDS011;51487;52.266;10.542;2024-01-15T03:45:29;9.13;;;3.08;;
64959;SDS011;51487;52.266;10.542;2024-01-15T03:47:55;8.20;;;2.85;;
64959;SDS011;51487;52.266;10.542;2024-01-15T03:50:20;12.73;;;3.30;;
64959;SDS011;51487;52.266;10.542;2024-01-15T03:52:45;9.13;;;3.67;;
64959;SDS011;51487;52.266;10.542;2024-01-15T03:55:11;7.55;;;2.53;;
64959;SDS011;51487;52.266;10.542;2024-01-15T03:57:36;9.45;;;2.83;;
64959;SDS011;51487;52.266;10.542;2024-01-15T04:00:02;8.15;;;2.85;;
64959;SDS011;51487;52.266;10.542;2024-01-15T04:02:28;6.22;;;2.65;;
64959;SDS011;51487;52.266;10.542;2024-01-15T04:04:54;7.72;;;2.92;;
64959;SDS011;51487;52.266;10.542;2024-01-15T04:07:19;8.32;;;3.05;;
64959;SDS011;51487;52.266;10.542;2024-01-15T04:09:45;8.45;;;3.08;;
64959;SDS011;51487;52.266;10.542;2024-01-15T04:12:10;9.68;;;2.80;;
64959;SDS011;51487;52.266;10.542;2024-01-15T04:14:36;8.25;;;2.40;;
64959;SDS011;51487;52.266;10.542;2024-01-15T04:17:01;7.03;;;2.42;;
64959;SDS011;51487;52.266;10.542;2024-01-15T04:19:27;7.57;;;3.28;;
64959;SDS011;51487;52.266;10.542;2024-01-15T04:21:52;8.68;;;3.08;;
64959;SDS011;51487;52.266;10.542;2024-01-15T04:24:18;7.32;;;2.17;;
64959;SDS011;51487;52.266;10.542;2024-01-15T04:26:43;6.15;;;2.83;;
64959;SDS011;51487;52.266;10.542;2024-01-15T04:29:10;7.88;;;2.50;;
64959;SDS011;51487;52.266;10.542;2024-01-15T04:31:35;7.55;;;2.72;;
64959;SDS011;51487;52.266;10.542;2024-01-15T04:34:01;6.85;;;2.55;;
64959;SDS011;51487;52.266;10.542;2024-01-15T04:36:26;7.78;;;2.78;;
64959;SDS011;51487;52.266;10.542;2024-01-15T04:38:51;6.25;;;2.50;;
64959;SDS011;51487;52.266;10.542;2024-01-15T04:41:17;8.48;;;2.80;;
64959;SDS011;51487;52.266;10.542;2024-01-15T04:43:42;12.13;;;2.80;;
64959;SDS011;51487;52.266;10.542;2024-01-15T04:46:08;10.43;;;3.38;;
64959;SDS011;51487;52.266;10.542;2024-01-15T04:48:34;7.18;;;2.50;;
64959;SDS011;51487;52.266;10.542;2024-01-15T04:51:00;6.20;;;2.72;;
64959;SDS011;51487;52.266;10.542;2024-01-15T04:53:25;7.63;;;2.75;;
64959;SDS011;51487;52.266;10.542;2024-01-15T04:55:51;10.30;;;3.03;;
64959;SDS011;51487;52.266;10.542;2024-01-15T04:58:17;3.58;;;2.42;;
64959;SDS011;51487;52.266;10.542;2024-01-15T05:00:42;5.60;;;2.47;;
64959;SDS011;51487;52.266;10.542;2024-01-15T05:03:07;6.30;;;2.55;;
64959;SDS011;51487;52.266;10.542;2024-01-15T05:05:33;7.10;;;2.65;;
64959;SDS011;51487;52.266;10.542;2024-01-15T05:07:58;6.90;;;3.08;;
64959;SDS011;51487;52.266;10.542;2024-01-15T05:10:24;6.10;;;2.50;;
64959;SDS011;51487;52.266;10.542;2024-01-15T05:12:49;6.60;;;2.38;;
64959;SDS011;51487;52.266;10.542;2024-01-15T05:15:15;10.40;;;2.65;;
64959;SDS011;51487;52.266;10.542;2024-01-15T05:17:40;7.53;;;2.58;;
64959;SDS011;51487;52.266;10.542;2024-01-15T05:20:06;6.45;;;2.38;;
64959;SDS011;51487;52.266;10.542;2024-01-15T05:22:32;5.70;;;2.15;;
64959;SDS011;51487;52.266;10.542;2024-01-15T05:24:57;8.88;;;2.40;;
64959;SDS011;51487;52.266;10.542;2024-01-15T05:27:23;7.40;;;2.50;;
64959;SDS011;51487;52.266;10.542;2024-01-15T05:29:48;8.35;;;2.67;;
64959;SDS011;51487;52.266;10.542;2024-01-15T05:32:14;4.50;;;2.45;;
64959;SDS011;51487;52.266;10.542;2024-01-15T05:34:39;6.72;;;2.58;;
64959;SDS011;51487;52.266;10.542;2024-01-15T05:37:05;5.82;;;2.60;;
64959;SDS011;51487;52.266;10.542;2024-01-15T05:39:30;7.05;;;2.60;;
64959;SDS011;51487;52.266;10.542;2024-01-15T05:41:56;7.05;;;2.85;;
64959;SDS011;51487;52.266;10.542;2024-01-15T05:44:22;6.70;;;2.28;;
64959;SDS011;51487;52.266;10.542;2024-01-15T05:46:48;5.57;;;2.13;;
64959;SDS011;51487;52.266;10.542;2024-01-15T05:49:13;6.85;;;2.90;;
64959;SDS011;51487;52.266;10.542;2024-01-15T05:51:39;8.15;;;2.40;;
64959;SDS011;51487;52.266;10.542;2024-01-15T05:54:04;6.28;;;2.92;;
64959;SDS011;51487;52.266;10.542;2024-01-15T05:56:31;5.28;;;2.67;;
64959;SDS011;51487;52.266;10.542;2024-01-15T05:58:56;5.63;;;2.65;;
64959;SDS011;51487;52.266;10.542;2024-01-15T06:01:21;13.45;;;2.50;;
64959;SDS011;51487;52.266;10.542;2024-01-15T06:03:47;5.43;;;2.33;;
64959;SDS011;51487;52.266;10.542;2024-01-15T06:06:12;9.93;;;2.40;;
64959;SDS011;51487;52.266;10.542;2024-01-15T06:08:38;8.55;;;3.97;;
64959;SDS011;51487;52.266;10.542;2024-01-15T06:11:04;6.15;;;2.75;;
64959;SDS011;51487;52.266;10.542;2024-01-15T06:13:29;7.38;;;2.75;;
64959;SDS011;51487;52.266;10.542;2024-01-15T06:15:55;4.75;;;2.22;;
64959;SDS011;51487;52.266;10.542;2024-01-15T06:18:20;11.30;;;3.00;;
64959;SDS011;51487;52.266;10.542;2024-01-15T06:20:46;6.93;;;2.72;;
64959;SDS011;51487;52.266;10.542;2024-01-15T06:23:11;7.65;;;3.08;;
64959;SDS011;51487;52.266;10.542;2024-01-15T06:25:37;7.72;;;3.13;;
64959;SDS011;51487;52.266;10.542;2024-01-15T06:28:02;8.95;;;3.20;;
64959;SDS011;51487;52.266;10.542;2024-01-15T06:30:29;4.85;;;2.50;;
64959;SDS011;51487;52.266;10.542;2024-01-15T06:32:55;6.10;;;2.88;;
64959;SDS011;51487;52.266;10.542;2024-01-15T06:35:20;5.25;;;2.80;;
64959;SDS011;51487;52.266;10.542;2024-01-15T06:37:46;7.78;;;3.30;;
64959;SDS011;51487;52.266;10.542;2024-01-15T06:40:11;5.82;;;3.08;;
64959;SDS011;51487;52.266;10.542;2024-01-15T06:42:37;11.75;;;3.35;;
64959;SDS011;51487;52.266;10.542;2024-01-15T06:45:02;10.13;;;3.40;;
64959;SDS011;51487;52.266;10.542;2024-01-15T06:47:28;5.45;;;3.42;;
64959;SDS011;51487;52.266;10.542;2024-01-15T06:49:54;7.40;;;2.92;;
64959;SDS011;51487;52.266;10.542;2024-01-15T06:52:20;6.93;;;2.88;;
64959;SDS011;51487;52.266;10.542;2024-01-15T06:54:45;6.85;;;3.58;;
64959;SDS011;51487;52.266;10.542;2024-01-15T06:57:10;7.35;;;3.13;;
64959;SDS011;51487;52.266;10.542;2024-01-15T06:59:36;6.85;;;2.80;;
64959;SDS011;51487;52.266;10.542;2024-01-15T07:02:01;7.47;;;2.85;;
64959;SDS011;51487;52.266;10.542;2024-01-15T07:04:27;8.32;;;2.90;;
64959;SDS011;51487;52.266;10.542;2024-01-15T07:06:53;7.32;;;2.95;;
64959;SDS011;51487;52.266;10.542;2024-01-15T07:09:18;6.50;;;3.38;;
64959;SDS011;51487;52.266;10.542;2024-01-15T07:11:44;8.15;;;3.45;;
64959;SDS011;51487;52.266;10.542;2024-01-15T07:14:11;9.38;;;3.63;;
64959;SDS011;51487;52.266;10.542;2024-01-15T07:16:37;6.32;;;2.97;;
64959;SDS011;51487;52.266;10.542;2024-01-15T07:19:03;3.80;;;2.70;;
64959;SDS011;51487;52.266;10.542;2024-01-15T07:21:29;5.75;;;3.00;;
64959;SDS011;51487;52.266;10.542;2024-01-15T07:23:55;4.88;;;2.67;;
64959;SDS011;51487;52.266;10.542;2024-01-15T07:26:20;5.40;;;2.97;;
64959;SDS011;51487;52.266;10.542;2024-01-15T07:28:46;5.75;;;3.15;;
64959;SDS011;51487;52.266;10.542;2024-01-15T07:31:12;5.53;;;3.15;;
64959;SDS011;51487;52.266;10.542;2024-01-15T07:33:37;7.63;;;3.28;;
64959;SDS011;51487;52.266;10.542;2024-01-15T07:36:03;6.10;;;2.95;;
64959;SDS011;51487;52.266;10.542;2024-01-15T07:38:29;8.73;;;3.05;;
64959;SDS011;51487;52.266;10.542;2024-01-15T07:40:54;9.32;;;3.20;;
64959;SDS011;51487;52.266;10.542;2024-01-15T07:43:20;12.95;;;3.65;;
64959;SDS011;51487;52.266;10.542;2024-01-15T07:45:45;9.02;;;3.30;;
64959;SDS011;51487;52.266;10.542;2024-01-15T07:48:11;6.63;;;3.75;;
64959;SDS011;51487;52.266;10.542;2024-01-15T07:50:37;6.25;;;2.80;;
64959;SDS011;51487;52.266;10.542;2024-01-15T07:53:02;6.45;;;2.95;;
64959;SDS011;51487;52.266;10.542;2024-01-15T07:55:28;9.18;;;3.63;;
64959;SDS011;51487;52.266;10.542;2024-01-15T07:57:54;6.82;;;3.05;;
64959;SDS011;51487;52.266;10.542;2024-01-15T08:00:23;8.38;;;2.95;;
64959;SDS011;51487;52.266;10.542;2024-01-15T08:02:49;8.43;;;3.20;;
64959;SDS011;51487;52.266;10.542;2024-01-15T08:05:16;9.43;;;2.72;;
64959;SDS011;51487;52.266;10.542;2024-01-15T08:07:41;8.68;;;3.85;;
64959;SDS011;51487;52.266;10.542;2024-01-15T08:10:07;8.27;;;2.80;;
64959;SDS011;51487;52.266;10.542;2024-01-15T08:12:33;4.93;;;3.08;;
64959;SDS011;51487;52.266;10.542;2024-01-15T08:14:58;8.18;;;2.70;;
64959;SDS011;51487;52.266;10.542;2024-01-15T08:17:24;5.53;;;3.05;;
64959;SDS011;51487;52.266;10.542;2024-01-15T08:19:53;8.38;;;2.97;;
64959;SDS011;51487;52.266;10.542;2024-01-15T08:22:19;5.30;;;2.95;;
64959;SDS011;51487;52.266;10.542;2024-01-15T08:24:45;7.15;;;2.97;;
64959;SDS011;51487;52.266;10.542;2024-01-15T08:27:11;4.50;;;2.80;;
64959;SDS011;51487;52.266;10.542;2024-01-15T08:29:36;5.72;;;3.42;;
64959;SDS011;51487;52.266;10.542;2024-01-15T08:32:02;4.57;;;2.90;;
64959;SDS011;51487;52.266;10.542;2024-01-15T08:34:27;6.53;;;2.97;;
64959;SDS011;51487;52.266;10.542;2024-01-15T08:36:53;5.57;;;2.88;;
64959;SDS011;51487;52.266;10.542;2024-01-15T08:39:18;8.05;;;3.20;;
64959;SDS011;51487;52.266;10.542;2024-01-15T08:41:44;4.78;;;3.00;;
64959;SDS011;51487;52.266;10.542;2024-01-15T08:44:13;9.00;;;3.03;;
64959;SDS011;51487;52.266;10.542;2024-01-15T08:46:39;5.65;;;2.75;;
64959;SDS011;51487;52.266;10.542;2024-01-15T08:49:04;5.80;;;2.92;;
64959;SDS011;51487;52.266;10.542;2024-01-15T08:51:31;7.13;;;3.00;;
64959;SDS011;51487;52.266;10.542;2024-01-15T08:53:56;4.47;;;3.10;;
64959;SDS011;51487;52.266;10.542;2024-01-15T08:56:22;7.05;;;3.10;;
64959;SDS011;51487;52.266;10.542;2024-01-15T08:58:48;4.85;;;2.78;;
64959;SDS011;51487;52.266;10.542;2024-01-15T09:01:13;5.25;;;3.42;;
64959;SDS011;51487;52.266;10.542;2024-01-15T09:03:39;11.73;;;3.63;;
64959;SDS011;51487;52.266;10.542;2024-01-15T09:06:07;5.90;;;3.22;;
64959;SDS011;51487;52.266;10.542;2024-01-15T09:08:34;6.25;;;3.05;;
64959;SDS011;51487;52.266;10.542;2024-01-15T09:11:01;8.52;;;3.15;;
64959;SDS011;51487;52.266;10.542;2024-01-15T09:13:28;4.18;;;2.80;;
64959;SDS011;51487;52.266;10.542;2024-01-15T09:15:53;9.30;;;2.80;;
64959;SDS011;51487;52.266;10.542;2024-01-15T09:18:19;5.93;;;2.88;;
64959;SDS011;51487;52.266;10.542;2024-01-15T09:20:44;6.75;;;2.70;;
64959;SDS011;51487;52.266;10.542;2024-01-15T09:23:09;5.47;;;2.60;;
64959;SDS011;51487;52.266;10.542;2024-01-15T09:25:35;5.18;;;2.50;;
64959;SDS011;51487;52.266;10.542;2024-01-15T09:28:00;5.93;;;2.65;;
64959;SDS011;51487;52.266;10.542;2024-01-15T09:30:26;5.15;;;2.33;;
64959;SDS011;51487;52.266;10.542;2024-01-15T09:32:51;3.80;;;2.33;;
64959;SDS011;51487;52.266;10.542;2024-01-15T09:35:17;6.38;;;2.60;;
64959;SDS011;51487;52.266;10.542;2024-01-15T09:37:42;2.90;;;2.40;;
64959;SDS011;51487;52.266;10.542;2024-01-15T09:40:08;6.28;;;2.60;;
64959;SDS011;51487;52.266;10.542;2024-01-15T09:42:39;4.35;;;2.50;;
64959;SDS011;51487;52.266;10.542;2024-01-15T09:45:06;4.75;;;2.30;;
64959;SDS011;51487;52.266;10.542;2024-01-15T09:47:34;6.85;;;2.00;;
64959;SDS011;51487;52.266;10.542;2024-01-15T09:50:01;3.15;;;2.08;;
64959;SDS011;51487;52.266;10.542;2024-01-15T09:52:28;6.63;;;2.30;;
64959;SDS011;51487;52.266;10.542;2024-01-15T09:54:56;4.30;;;2.10;;
64959;SDS011;51487;52.266;10.542;2024-01-15T09:57:26;5.47;;;2.40;;
64959;SDS011;51487;52.266;10.542;2024-01-15T09:59:52;4.78;;;2.10;;
64959;SDS011;51487;52.266;10.542;2024-01-15T10:02:19;7.10;;;2.20;;
64959;SDS011;51487;52.266;10.542;2024-01-15T10:04:45;5.00;;;2.63;;
64959;SDS011;51487;52.266;10.542;2024-01-15T10:07:13;4.72;;;2.70;;
64959;SDS011;51487;52.266;10.542;2024-01-15T10:09:42;4.60;;;2.33;;
64959;SDS011;51487;52.266;10.542;2024-01-15T10:12:08;7.90;;;2.95;;
64959;SDS011;51487;52.266;10.542;2024-01-15T10:14:35;4.05;;;2.38;;
64959;SDS011;51487;52.266;10.542;2024-01-15T10:17:00;6.38;;;2.90;;
64959;SDS011;51487;52.266;10.542;2024-01-15T10:19:36;5.35;;;2.60;;
64959;SDS011;51487;52.266;10.542;2024-01-15T10:22:01;5.38;;;2.25;;
64959;SDS011;51487;52.266;10.542;2024-01-15T10:24:28;8.10;;;2.85;;
64959;SDS011;51487;52.266;10.542;2024-01-15T10:27:03;6.32;;;2.65;;
64959;SDS011;51487;52.266;10.542;2024-01-15T10:29:31;7.03;;;2.63;;
64959;SDS011;51487;52.266;10.542;2024-01-15T10:31:57;4.47;;;2.50;;
64959;SDS011;51487;52.266;10.542;2024-01-15T10:34:24;5.72;;;2.33;;
64959;SDS011;51487;52.266;10.542;2024-01-15T10:36:50;8.60;;;2.50;;
64959;SDS011;51487;52.266;10.542;2024-01-15T10:39:23;5.88;;;2.20;;
64959;SDS011;51487;52.266;10.542;2024-01-15T10:41:50;4.07;;;2.25;;
64959;SDS011;51487;52.266;10.542;2024-01-15T10:44:16;9.80;;;3.00;;
64959;SDS011;51487;52.266;10.542;2024-01-15T10:46:43;7.40;;;2.58;;
64959;SDS011;51487;52.266;10.542;2024-01-15T10:49:10;6.25;;;2.95;;
64959;SDS011;51487;52.266;10.542;2024-01-15T10:51:37;4.97;;;2.42;;
64959;SDS011;51487;52.266;10.542;2024-01-15T10:54:04;6.03;;;2.78;;
64959;SDS011;51487;52.266;10.542;2024-01-15T10:56:31;6.15;;;2.50;;
64959;SDS011;51487;52.266;10.542;2024-01-15T10:58:58;7.72;;;2.20;;
64959;SDS011;51487;52.266;10.542;2024-01-15T11:01:24;6.00;;;2.45;;
64959;SDS011;51487;52.266;10.542;2024-01-15T11:03:51;6.63;;;2.33;;
64959;SDS011;51487;52.266;10.542;2024-01-15T11:06:17;4.10;;;1.98;;
64959;SDS011;51487;52.266;10.542;2024-01-15T11:08:45;2.33;;;1.85;;
64959;SDS011;51487;52.266;10.542;2024-01-15T11:11:17;6.00;;;2.00;;
64959;SDS011;51487;52.266;10.542;2024-01-15T11:13:43;3.90;;;1.85;;
64959;SDS011;51487;52.266;10.542;2024-01-15T11:16:14;4.18;;;1.88;;
64959;SDS011;51487;52.266;10.542;2024-01-15T11:18:43;4.97;;;2.10;;
64959;SDS011;51487;52.266;10.542;2024-01-15T11:21:28;2.75;;;2.20;;
64959;SDS011;51487;52.266;10.542;2024-01-15T11:24:00;3.85;;;1.92;;
64959;SDS011;51487;52.266;10.542;2024-01-15T11:26:37;4.32;;;2.33;;
64959;SDS011;51487;52.266;10.542;2024-01-15T11:32:08;3.47;;;2.13;;
64959;SDS011;51487;52.266;10.542;2024-01-15T11:34:54;2.97;;;2.17;;
64959;SDS011;51487;52.266;10.542;2024-01-15T11:37:27;6.35;;;1.98;;
64959;SDS011;51487;52.266;10.542;2024-01-15T11:40:17;4.90;;;1.90;;
64959;SDS011;51487;52.266;10.542;2024-01-15T11:42:45;7.15;;;2.50;;
64959;SDS011;51487;52.266;10.542;2024-01-15T11:45:12;6.80;;;2.38;;
64959;SDS011;51487;52.266;10.542;2024-01-15T11:50:35;4.32;;;2.10;;
64959;SDS011;51487;52.266;10.542;2024-01-15T11:53:20;8.48;;;2.00;;
64959;SDS011;51487;52.266;10.542;2024-01-15T11:55:52;4.57;;;1.92;;
64959;SDS011;51487;52.266;10.542;2024-01-15T11:58:21;5.57;;;2.03;;
64959;SDS011;51487;52.266;10.542;2024-01-15T12:00:47;6.80;;;1.98;;
64959;SDS011;51487;52.266;10.542;2024-01-15T12:03:14;4.15;;;1.83;;
64959;SDS011;51487;52.266;10.542;2024-01-15T12:05:40;6.38;;;2.85;;
64959;SDS011;51487;52.266;10.542;2024-01-15T12:08:09;8.20;;;2.10;;
64959;SDS011;51487;52.266;10.542;2024-01-15T12:10:37;3.63;;;2.03;;
64959;SDS011;51487;52.266;10.542;2024-01-15T12:15:40;6.22;;;2.17;;
64959;SDS011;51487;52.266;10.542;2024-01-15T12:18:08;4.60;;;2.00;;
64959;SDS011;51487;52.266;10.542;2024-01-15T12:20:35;9.07;;;2.53;;
64959;SDS011;51487;52.266;10.542;2024-01-15T12:23:01;7.55;;;2.38;;
64959;SDS011;51487;52.266;10.542;2024-01-15T12:25:31;6.03;;;2.25;;
64959;SDS011;51487;52.266;10.542;2024-01-15T12:27:58;5.55;;;2.00;;
64959;SDS011;51487;52.266;10.542;2024-01-15T12:30:29;8.35;;;2.40;;
64959;SDS011;51487;52.266;10.542;2024-01-15T12:33:05;6.63;;;2.20;;
64959;SDS011;51487;52.266;10.542;2024-01-15T12:35:33;4.65;;;2.15;;
64959;SDS011;51487;52.266;10.542;2024-01-15T12:37:59;6.82;;;1.90;;
64959;SDS011;51487;52.266;10.542;2024-01-15T12:40:29;5.10;;;2.00;;
64959;SDS011;51487;52.266;10.542;2024-01-15T12:42:56;3.70;;;2.05;;
64959;SDS011;51487;52.266;10.542;2024-01-15T12:45:21;3.47;;;1.83;;
64959;SDS011;51487;52.266;10.542;2024-01-15T12:47:47;4.00;;;2.03;;
64959;SDS011;51487;52.266;10.542;2024-01-15T12:50:13;7.28;;;2.20;;
64959;SDS011;51487;52.266;10.542;2024-01-15T12:52:42;8.18;;;2.50;;
64959;SDS011;51487;52.266;10.542;2024-01-15T12:55:08;6.03;;;2.63;;
64959;SDS011;51487;52.266;10.542;2024-01-15T12:57:35;4.55;;;2.25;;
64959;SDS011;51487;52.266;10.542;2024-01-15T13:00:01;7.40;;;2.47;;
64959;SDS011;51487;52.266;10.542;2024-01-15T13:02:41;5.88;;;2.42;;
64959;SDS011;51487;52.266;10.542;2024-01-15T13:05:08;6.95;;;3.05;;
64959;SDS011;51487;52.266;10.542;2024-01-15T13:07:36;5.95;;;2.28;;
64959;SDS011;51487;52.266;10.542;2024-01-15T13:10:02;5.53;;;2.33;;
64959;SDS011;51487;52.266;10.542;2024-01-15T13:12:27;5.60;;;2.50;;
64959;SDS011;51487;52.266;10.542;2024-01-15T13:14:53;5.60;;;2.40;;
64959;SDS011;51487;52.266;10.542;2024-01-15T13:17:19;5.68;;;2.20;;
64959;SDS011;51487;52.266;10.542;2024-01-15T13:19:46;7.13;;;2.78;;
64959;SDS011;51487;52.266;10.542;2024-01-15T13:22:11;5.88;;;2.63;;
64959;SDS011;51487;52.266;10.542;2024-01-15T13:24:39;4.50;;;2.45;;
64959;SDS011;51487;52.266;10.542;2024-01-15T13:27:05;7.22;;;2.83;;
64959;SDS011;51487;52.266;10.542;2024-01-15T13:29:31;7.70;;;2.45;;
64959;SDS011;51487;52.266;10.542;2024-01-15T13:31:57;9.02;;;2.38;;
64959;SDS011;51487;52.266;10.542;2024-01-15T13:34:23;2.88;;;2.17;;
64959;SDS011;51487;52.266;10.542;2024-01-15T13:36:49;5.97;;;2.13;;
64959;SDS011;51487;52.266;10.542;2024-01-15T13:39:18;6.47;;;1.90;;
64959;SDS011;51487;52.266;10.542;2024-01-15T13:41:48;6.43;;;2.30;;
64959;SDS011;51487;52.266;10.542;2024-01-15T13:44:13;5.15;;;2.00;;
64959;SDS011;51487;52.266;10.542;2024-01-15T13:46:39;8.73;;;2.42;;
64959;SDS011;51487;52.266;10.542;2024-01-15T13:49:04;4.53;;;2.20;;
64959;SDS011;51487;52.266;10.542;2024-01-15T13:51:31;9.25;;;2.47;;
64959;SDS011;51487;52.266;10.542;2024-01-15T13:53:57;7.85;;;2.42;;
64959;SDS011;51487;52.266;10.542;2024-01-15T13:56:23;6.55;;;2.20;;
64959;SDS011;51487;52.266;10.542;2024-01-15T13:58:48;7.40;;;2.30;;
64959;SDS011;51487;52.266;10.542;2024-01-15T14:01:14;8.68;;;2.40;;
64959;SDS011;51487;52.266;10.542;2024-01-15T14:03:42;6.82;;;2.33;;
64959;SDS011;51487;52.266;10.542;2024-01-15T14:06:08;6.25;;;2.25;;
64959;SDS011;51487;52.266;10.542;2024-01-15T14:08:34;6.53;;;2.17;;
64959;SDS011;51487;52.266;10.542;2024-01-15T14:11:01;4.85;;;2.17;;
64959;SDS011;51487;52.266;10.542;2024-01-15T14:13:28;6.82;;;2.78;;
64959;SDS011;51487;52.266;10.542;2024-01-15T14:15:54;9.05;;;2.95;;
64959;SDS011;51487;52.266;10.542;2024-01-15T14:18:20;6.55;;;2.78;;
64959;SDS011;51487;52.266;10.542;2024-01-15T14:20:46;6.10;;;2.90;;
64959;SDS011;51487;52.266;10.542;2024-01-15T14:23:12;6.20;;;2.65;;
64959;SDS011;51487;52.266;10.542;2024-01-15T14:25:38;11.18;;;3.05;;
64959;SDS011;51487;52.266;10.542;2024-01-15T14:28:04;7.38;;;2.65;;
64959;SDS011;51487;52.266;10.542;2024-01-15T14:30:30;8.43;;;2.80;;
64959;SDS011;51487;52.266;10.542;2024-01-15T14:32:55;10.45;;;2.67;;
64959;SDS011;51487;52.266;10.542;2024-01-15T14:35:21;4.72;;;2.15;;
64959;SDS011;51487;52.266;10.542;2024-01-15T14:37:46;8.88;;;2.88;;